createdAt,value
2018-05-08T21:21:27.770Z,16.40
2018-05-08T21:23:55.274Z,16.40
2018-05-08T21:26:22.762Z,16.40
2018-05-08T21:28:56.211Z,16.40
2018-05-08T21:31:23.694Z,16.20
2018-05-08T21:33:51.184Z,16.30
2018-05-08T21:36:18.701Z,16.20
2018-05-08T21:38:46.182Z,16.10
2018-05-08T21:41:13.685Z,16.10
2018-05-08T21:43:41.938Z,16.00
2018-05-08T21:46:09.679Z,16.00
2018-05-08T21:48:37.179Z,15.90
2018-05-08T21:51:06.034Z,15.70
2018-05-08T21:53:33.678Z,15.60
2018-05-08T21:56:01.161Z,15.60
2018-05-08T21:58:29.481Z,15.60
2018-05-08T22:00:57.749Z,15.60
2018-05-08T22:03:25.994Z,15.50
2018-05-08T22:05:53.493Z,15.50
2018-05-08T22:08:22.191Z,15.40
2018-05-08T22:10:49.911Z,15.40
2018-05-08T22:13:17.892Z,15.30
2018-05-08T22:15:45.374Z,15.40
2018-05-08T22:18:13.638Z,15.40
2018-05-08T22:20:42.298Z,15.40
2018-05-08T22:23:09.784Z,15.40
2018-05-08T22:25:38.063Z,15.20
2018-05-08T22:28:06.313Z,15.10
2018-05-08T22:30:34.268Z,15.10
2018-05-08T22:33:01.758Z,15.20
2018-05-08T22:35:30.002Z,15.20
2018-05-08T22:37:57.509Z,15.10
2018-05-08T22:40:26.147Z,15.10
2018-05-08T22:42:53.650Z,15.10
2018-05-08T22:45:21.897Z,14.90
2018-05-08T22:48:50.034Z,14.90
2018-05-08T22:51:17.592Z,14.80
2018-05-08T22:53:45.869Z,14.70
2018-05-08T22:56:14.113Z,14.60
2018-05-08T22:58:41.576Z,14.60
2018-05-08T23:01:10.695Z,14.70
2018-05-08T23:03:38.170Z,14.70
2018-05-08T23:06:05.670Z,14.80
2018-05-08T23:08:33.725Z,14.80
2018-05-08T23:11:01.205Z,14.70
2018-05-08T23:13:29.523Z,14.40
2018-05-08T23:15:56.997Z,14.40
2018-05-08T23:18:24.493Z,14.40
2018-05-08T23:20:51.982Z,14.30
2018-05-08T23:23:19.472Z,14.40
2018-05-08T23:25:46.981Z,14.20
2018-05-08T23:28:15.222Z,14.30
2018-05-08T23:30:45.231Z,14.30
2018-05-08T23:33:14.441Z,14.40
2018-05-08T23:35:43.737Z,14.50
2018-05-08T23:38:11.234Z,14.40
2018-05-08T23:40:39.917Z,14.30
2018-05-08T23:43:08.175Z,14.30
2018-05-08T23:45:35.653Z,14.30
2018-05-08T23:48:03.894Z,14.30
2018-05-08T23:50:31.397Z,14.30
2018-05-08T23:52:59.643Z,14.30
2018-05-08T23:55:27.489Z,14.20
2018-05-08T23:57:54.996Z,14.20
